Time;durP1;ratioP1;P1;durP2;ratioP2;P2;SDS_P1;SDS_P2;PMS_P1;PMS_P2;Temp;Humidity;BMP_temperature;BMP_pressure;BME280_temperature;BME280_humidity;BME280_pressure;Samples;Min_cycle;Max_cycle;Signal;HPM_P1;HPM_P2
2022/08/10 00:00:21;;;;;;;4.90;2.57;;;18.50;99.90;;;;;;5053288;28;20173;-82
2022/08/10 00:02:48;;;;;;;3.00;2.70;;;18.40;99.90;;;;;;5053246;28;20219;-81
2022/08/10 00:05:14;;;;;;;3.70;2.50;;;18.50;99.90;;;;;;5053194;28;20650;-82
2022/08/10 00:07:39;;;;;;;3.27;2.63;;;18.50;99.90;;;;;;5052735;28;20238;-81
2022/08/10 00:10:06;;;;;;;4.87;2.70;;;18.40;99.90;;;;;;5053341;28;20184;-81
2022/08/10 00:12:31;;;;;;;3.93;3.50;;;18.40;99.90;;;;;;5052174;28;20664;-82
2022/08/10 00:14:58;;;;;;;3.50;2.70;;;18.40;99.90;;;;;;5052260;28;20189;-81
2022/08/10 00:17:25;;;;;;;5.77;2.90;;;18.30;99.90;;;;;;5052328;28;20201;-82
2022/08/10 00:19:50;;;;;;;6.50;2.47;;;18.20;99.90;;;;;;5052669;28;20264;-82
2022/08/10 00:22:16;;;;;;;3.80;2.90;;;18.30;99.90;;;;;;5052289;28;20215;-82
2022/08/10 00:24:41;;;;;;;5.40;2.67;;;18.20;99.90;;;;;;5051946;28;20208;-81
2022/08/10 00:27:07;;;;;;;4.30;2.60;;;18.10;99.90;;;;;;5052378;28;20188;-82
2022/08/10 00:29:33;;;;;;;3.83;2.80;;;18.00;99.90;;;;;;5053126;28;20166;-81
2022/08/10 00:31:58;;;;;;;3.63;2.73;;;18.00;99.90;;;;;;5052262;28;20169;-83
2022/08/10 00:34:24;;;;;;;6.13;2.83;;;18.00;99.90;;;;;;5051285;28;20195;-82
2022/08/10 00:36:50;;;;;;;2.77;2.53;;;18.00;99.90;;;;;;5051733;28;20695;-82
2022/08/10 00:39:15;;;;;;;5.87;2.73;;;17.90;99.90;;;;;;5051751;28;20170;-82
2022/08/10 00:41:41;;;;;;;4.20;2.70;;;17.80;99.90;;;;;;5052178;28;20180;-82
2022/08/10 00:44:06;;;;;;;6.90;2.70;;;17.70;99.90;;;;;;5051903;28;20692;-81
2022/08/10 00:46:32;;;;;;;5.67;2.83;;;17.80;99.90;;;;;;5051614;28;20186;-82
2022/08/10 00:48:57;;;;;;;3.57;2.70;;;17.80;99.90;;;;;;5051829;28;20203;-82
2022/08/10 00:51:23;;;;;;;3.00;2.80;;;17.80;99.90;;;;;;5052571;28;20215;-82
2022/08/10 00:53:49;;;;;;;3.03;2.73;;;17.80;99.90;;;;;;5052516;28;20169;-82
2022/08/10 00:56:15;;;;;;;3.60;2.90;;;17.60;99.90;;;;;;5052780;28;20189;-82
2022/08/10 00:58:40;;;;;;;4.70;2.80;;;17.60;99.90;;;;;;5052371;28;20280;-82
2022/08/10 01:01:06;;;;;;;6.07;3.00;;;17.50;99.90;;;;;;5052805;28;20169;-82
2022/08/10 01:03:32;;;;;;;6.80;3.10;;;17.60;99.90;;;;;;5052702;28;20170;-81
2022/08/10 01:06:27;;;;;;;3.10;2.80;;;17.50;99.90;;;;;;5052111;28;20604;-82
2022/08/10 01:09:16;;;;;;;3.43;3.13;;;17.40;99.90;;;;;;5052596;28;20185;-82
2022/08/10 01:12:10;;;;;;;7.10;3.17;;;17.50;99.90;;;;;;5052552;28;20248;-81
2022/08/10 01:14:57;;;;;;;3.63;3.20;;;17.50;99.90;;;;;;5041226;28;20197;-81
2022/08/10 01:17:49;;;;;;;5.00;2.73;;;17.50;99.90;;;;;;5057199;28;20238;-82
2022/08/10 01:20:38;;;;;;;6.37;3.27;;;17.50;99.90;;;;;;5039551;28;20177;-82
2022/08/10 01:23:37;;;;;;;3.23;3.03;;;17.60;99.90;;;;;;5006628;28;20200;-81
2022/08/10 01:26:06;;;;;;;6.00;3.10;;;17.50;99.90;;;;;;5057270;28;20185;-82
2022/08/10 01:28:50;;;;;;;4.27;3.30;;;17.60;99.90;;;;;;5057373;28;20523;-82
2022/08/10 01:31:21;;;;;;;6.27;3.17;;;17.40;99.90;;;;;;5056862;28;20169;-82
2022/08/10 01:33:56;;;;;;;3.40;3.10;;;17.40;99.90;;;;;;5056738;28;20664;-82
2022/08/10 01:36:45;;;;;;;3.67;3.37;;;17.40;99.90;;;;;;5057058;28;20205;-81
2022/08/10 01:39:21;;;;;;;5.23;2.90;;;17.40;99.90;;;;;;5057114;28;20200;-82
2022/08/10 01:41:49;;;;;;;5.13;3.17;;;17.30;99.90;;;;;;5057378;28;20165;-82
2022/08/10 01:44:38;;;;;;;4.73;3.10;;;17.20;99.90;;;;;;5056763;28;20169;-81
2022/08/10 01:50:10;;;;;;;4.27;3.07;;;17.10;99.90;;;;;;5058432;28;20200;-82
2022/08/10 01:52:41;;;;;;;6.60;3.30;;;17.00;99.90;;;;;;5058014;28;20218;-82
2022/08/10 01:55:10;;;;;;;4.97;3.20;;;17.00;99.90;;;;;;5056453;28;20673;-82
2022/08/10 01:57:37;;;;;;;4.33;3.13;;;17.00;99.90;;;;;;5055427;28;20197;-82
2022/08/10 02:00:04;;;;;;;5.93;3.20;;;17.00;99.90;;;;;;5056071;28;20177;-81
2022/08/10 02:02:32;;;;;;;5.50;3.20;;;17.20;99.90;;;;;;5055168;28;20192;-81
2022/08/10 02:05:01;;;;;;;5.37;3.27;;;17.20;99.90;;;;;;5055647;28;20188;-82
2022/08/10 02:07:29;;;;;;;7.10;3.47;;;17.00;99.90;;;;;;5054861;28;20264;-81
2022/08/10 02:10:01;;;;;;;4.93;3.50;;;17.00;99.90;;;;;;5054314;28;20196;-82
2022/08/10 02:12:30;;;;;;;3.37;3.07;;;17.10;99.90;;;;;;5054759;28;20168;-83
2022/08/10 02:15:00;;;;;;;3.70;3.40;;;17.00;99.90;;;;;;5054429;28;20201;-82
2022/08/10 02:17:30;;;;;;;4.70;3.50;;;16.90;99.90;;;;;;5054557;28;20208;-82
2022/08/10 02:19:58;;;;;;;9.50;3.73;;;16.90;99.90;;;;;;5055046;28;20177;-82
2022/08/10 02:22:26;;;;;;;3.37;3.07;;;16.80;99.90;;;;;;5054511;28;20177;-82
2022/08/10 02:24:53;;;;;;;5.80;3.33;;;16.70;99.90;;;;;;5054214;28;20242;-82
2022/08/10 02:27:22;;;;;;;4.93;3.43;;;16.70;99.90;;;;;;5053564;28;20173;-81
2022/08/10 02:29:51;;;;;;;4.90;3.50;;;16.80;99.90;;;;;;5054063;28;20186;-83
2022/08/10 02:32:18;;;;;;;8.73;3.73;;;16.80;99.90;;;;;;5054258;28;20165;-82
2022/08/10 02:34:45;;;;;;;6.90;4.20;;;16.50;99.90;;;;;;5053133;28;20236;-82
2022/08/10 02:37:13;;;;;;;4.40;4.00;;;16.40;99.90;;;;;;5053824;28;20692;-83
2022/08/10 02:39:38;;;;;;;9.93;4.27;;;16.40;99.90;;;;;;5054186;28;20630;-82
2022/08/10 02:42:12;;;;;;;4.93;4.03;;;16.30;99.90;;;;;;5054457;28;20177;-81
2022/08/10 02:44:41;;;;;;;7.43;4.00;;;16.30;99.90;;;;;;5054152;28;20193;-82
2022/08/10 02:47:29;;;;;;;5.57;4.13;;;16.30;99.90;;;;;;5054040;28;20185;-81
2022/08/10 02:50:21;;;;;;;5.10;4.33;;;16.50;99.90;;;;;;5053385;28;20680;-82
2022/08/10 02:52:52;;;;;;;5.53;4.37;;;16.60;99.90;;;;;;5041208;28;20188;-81
2022/08/10 02:55:47;;;;;;;4.43;4.03;;;16.70;99.90;;;;;;5055320;28;20299;-82
2022/08/10 02:58:28;;;;;;;7.63;4.40;;;16.60;99.90;;;;;;5054977;28;20196;-81
2022/08/10 03:00:56;;;;;;;5.87;4.17;;;16.50;99.90;;;;;;5055245;28;20157;-81
2022/08/10 03:03:30;;;;;;;5.40;4.10;;;16.50;99.90;;;;;;5054642;28;20235;-82
2022/08/10 03:06:04;;;;;;;5.97;4.30;;;16.40;99.90;;;;;;5055117;28;20199;-82
2022/08/10 03:08:35;;;;;;;6.07;4.70;;;16.50;99.90;;;;;;5054429;28;20243;-82
2022/08/10 03:11:03;;;;;;;5.43;4.63;;;16.40;99.90;;;;;;5054257;28;20176;-83
2022/08/10 03:13:31;;;;;;;6.40;4.73;;;16.30;99.90;;;;;;5054903;28;20248;-83
2022/08/10 03:15:59;;;;;;;7.17;4.50;;;16.30;99.90;;;;;;5054218;28;20232;-82
2022/08/10 03:18:25;;;;;;;6.67;5.03;;;16.20;99.90;;;;;;5054213;28;20201;-82
2022/08/10 03:20:52;;;;;;;8.67;4.83;;;16.20;99.90;;;;;;5054524;28;20180;-83
2022/08/10 03:23:22;;;;;;;6.53;4.93;;;16.10;99.90;;;;;;5053997;28;20175;-82
2022/08/10 03:25:51;;;;;;;5.30;4.80;;;16.20;99.90;;;;;;5053323;28;20190;-82
2022/08/10 03:28:19;;;;;;;6.53;4.90;;;16.40;99.90;;;;;;5053697;28;20169;-82
2022/08/10 03:30:45;;;;;;;7.20;5.30;;;16.20;99.90;;;;;;5054519;28;20196;-83
2022/08/10 03:33:12;;;;;;;7.57;4.67;;;16.20;99.90;;;;;;5055376;28;20174;-82
2022/08/10 03:35:38;;;;;;;5.97;5.33;;;16.20;99.90;;;;;;5053394;28;20555;-82
2022/08/10 03:38:04;;;;;;;7.27;5.03;;;16.10;99.90;;;;;;5053995;28;20203;-82
2022/08/10 03:40:34;;;;;;;7.00;5.37;;;16.10;99.90;;;;;;5054829;28;20684;-82
2022/08/10 03:43:02;;;;;;;6.70;5.20;;;16.20;99.90;;;;;;5053905;28;20165;-81
2022/08/10 03:45:31;;;;;;;11.83;5.40;;;16.10;99.90;;;;;;5053995;28;20542;-82
2022/08/10 03:47:58;;;;;;;7.50;5.23;;;16.00;99.90;;;;;;5053750;28;20177;-81
2022/08/10 03:50:26;;;;;;;8.87;5.63;;;15.90;99.90;;;;;;5053937;28;20650;-83
2022/08/10 03:52:52;;;;;;;8.27;5.13;;;15.80;99.90;;;;;;5055176;28;20583;-82
2022/08/10 03:55:18;;;;;;;6.53;5.27;;;15.90;99.90;;;;;;5053078;28;20220;-82
2022/08/10 03:57:44;;;;;;;13.40;6.00;;;15.90;99.90;;;;;;5053144;28;20571;-83
2022/08/10 04:00:11;;;;;;;8.80;5.40;;;15.80;99.90;;;;;;5053140;28;20656;-82
2022/08/10 04:02:38;;;;;;;5.67;4.80;;;15.70;99.90;;;;;;5052983;28;20180;-82
2022/08/10 04:05:04;;;;;;;7.40;5.93;;;15.80;99.90;;;;;;5052779;28;20200;-82
2022/08/10 04:07:30;;;;;;;6.27;5.30;;;15.70;99.90;;;;;;5052943;28;20274;-82
2022/08/10 04:09:56;;;;;;;10.13;5.53;;;15.70;99.90;;;;;;5052516;28;20882;-81
2022/08/10 04:12:23;;;;;;;8.57;6.03;;;15.70;99.90;;;;;;5052986;28;20182;-81
2022/08/10 04:14:48;;;;;;;6.57;4.77;;;15.60;99.90;;;;;;5052652;28;20286;-82
2022/08/10 04:17:14;;;;;;;6.40;5.77;;;15.70;99.90;;;;;;5052391;28;20236;-81
2022/08/10 04:19:44;;;;;;;7.90;5.77;;;15.80;99.90;;;;;;5052649;28;20181;-82
2022/08/10 04:22:16;;;;;;;12.40;5.60;;;15.70;99.90;;;;;;5052410;28;20169;-81
2022/08/10 04:24:45;;;;;;;10.43;5.80;;;15.70;99.90;;;;;;5052090;28;20627;-82
2022/08/10 04:27:11;;;;;;;8.63;5.97;;;15.70;99.90;;;;;;5052777;28;20185;-82
2022/08/10 04:29:37;;;;;;;11.47;5.70;;;15.60;99.90;;;;;;5052013;28;20181;-83
2022/08/10 04:32:04;;;;;;;9.40;5.97;;;15.50;99.90;;;;;;5052326;28;20259;-82
2022/08/10 04:34:31;;;;;;;9.57;6.37;;;15.70;99.90;;;;;;5051876;28;20397;-82
2022/08/10 04:36:59;;;;;;;7.77;6.13;;;15.60;99.90;;;;;;5051904;28;20295;-82
2022/08/10 04:39:26;;;;;;;12.53;6.53;;;15.70;99.90;;;;;;5051732;28;20190;-85
2022/08/10 04:41:52;;;;;;;9.60;6.40;;;15.50;99.90;;;;;;5055229;28;20578;-84
2022/08/10 04:44:17;;;;;;;13.60;6.00;;;15.60;99.90;;;;;;5056058;28;20541;-85
2022/08/10 04:46:43;;;;;;;10.90;7.03;;;15.60;99.90;;;;;;5053422;28;20175;-84
2022/08/10 04:49:09;;;;;;;10.20;7.03;;;15.50;99.90;;;;;;5054829;28;20170;-84
2022/08/10 04:51:34;;;;;;;12.03;6.80;;;15.60;99.90;;;;;;5054046;28;20177;-85
2022/08/10 04:54:00;;;;;;;12.53;6.63;;;15.60;99.90;;;;;;5056068;28;20181;-85
2022/08/10 04:56:26;;;;;;;10.60;6.13;;;15.60;99.90;;;;;;5053892;28;20189;-85
2022/08/10 04:58:51;;;;;;;9.83;6.43;;;15.50;99.90;;;;;;5056103;28;20203;-85
2022/08/10 05:01:17;;;;;;;8.13;6.33;;;15.70;99.90;;;;;;5055430;28;20176;-85
2022/08/10 05:03:43;;;;;;;8.40;6.27;;;15.80;99.90;;;;;;5057358;28;20181;-85
2022/08/10 05:06:08;;;;;;;9.87;5.67;;;15.90;99.90;;;;;;5054336;28;20204;-85
2022/08/10 05:08:34;;;;;;;9.97;5.27;;;16.10;99.90;;;;;;5053087;28;20678;-85
2022/08/10 05:11:00;;;;;;;6.97;5.30;;;16.20;99.90;;;;;;5053777;28;20185;-85
2022/08/10 05:13:25;;;;;;;11.90;4.97;;;16.30;99.90;;;;;;5053305;28;20181;-84
2022/08/10 05:15:52;;;;;;;11.43;5.43;;;16.30;99.90;;;;;;5052096;28;20204;-85
2022/08/10 05:18:18;;;;;;;9.87;6.10;;;16.20;99.90;;;;;;5053458;28;20288;-85
2022/08/10 05:20:43;;;;;;;10.30;5.80;;;16.30;99.90;;;;;;5053484;28;20201;-85
2022/08/10 05:23:09;;;;;;;11.13;5.93;;;16.30;99.90;;;;;;5053803;28;20169;-85
2022/08/10 05:25:35;;;;;;;16.77;6.37;;;16.20;99.90;;;;;;5053130;28;20263;-85
2022/08/10 05:28:01;;;;;;;8.83;6.47;;;16.40;99.90;;;;;;5053102;28;20183;-85
2022/08/10 05:30:26;;;;;;;11.67;5.60;;;16.30;99.90;;;;;;5054165;28;20170;-85
2022/08/10 05:32:52;;;;;;;8.33;5.47;;;16.40;99.90;;;;;;5057597;28;20169;-85
2022/08/10 05:35:18;;;;;;;7.67;5.20;;;16.50;99.90;;;;;;5052828;28;20886;-85
2022/08/10 05:37:45;;;;;;;9.40;5.60;;;16.70;99.90;;;;;;5052272;28;20231;-85
2022/08/10 05:40:11;;;;;;;9.13;5.10;;;16.70;99.90;;;;;;5053104;28;20166;-84
2022/08/10 05:42:38;;;;;;;8.43;5.77;;;16.80;99.90;;;;;;5051334;28;20173;-85
2022/08/10 05:45:04;;;;;;;10.80;5.30;;;16.70;99.90;;;;;;5051687;28;20193;-85
2022/08/10 05:47:29;;;;;;;10.47;4.70;;;16.70;99.90;;;;;;5051667;28;20654;-84
2022/08/10 05:49:56;;;;;;;6.17;5.00;;;16.90;99.90;;;;;;5052703;28;20219;-85
2022/08/10 05:52:22;;;;;;;6.20;5.00;;;17.10;99.90;;;;;;5051840;28;20589;-85
2022/08/10 05:54:48;;;;;;;7.83;5.23;;;17.00;99.90;;;;;;5051621;28;20196;-85
2022/08/10 05:57:16;;;;;;;9.97;5.00;;;17.20;99.90;;;;;;5051274;28;20220;-85
2022/08/10 05:59:58;;;;;;;7.97;4.80;;;17.40;99.90;;;;;;5053061;28;20165;-83
2022/08/10 06:02:30;;;;;;;7.80;5.10;;;17.40;99.90;;;;;;5056525;28;20220;-83
2022/08/10 06:04:59;;;;;;;8.57;4.70;;;17.60;99.90;;;;;;5056488;28;20743;-82
2022/08/10 06:07:27;;;;;;;8.03;4.93;;;17.80;99.90;;;;;;5056858;28;20177;-83
2022/08/10 06:09:55;;;;;;;9.30;4.27;;;18.20;99.90;;;;;;5055588;28;20189;-82
2022/08/10 06:12:26;;;;;;;6.30;4.20;;;18.70;99.90;;;;;;5056001;28;20173;-82
2022/08/10 06:15:00;;;;;;;15.02;4.10;;;19.20;99.90;;;;;;5055171;28;20300;-84
2022/08/10 06:17:28;;;;;;;8.35;3.35;;;19.60;99.90;;;;;;5055610;28;20185;-82
2022/08/10 06:19:58;;;;;;;15.13;4.30;;;20.30;99.90;;;;;;5057144;28;20752;-82
2022/08/10 06:22:31;;;;;;;11.05;3.25;;;20.50;99.90;;;;;;5060864;28;20197;-79
2022/08/10 06:24:57;;;;;;;8.23;3.00;;;20.90;99.90;;;;;;5059994;28;20220;-81
2022/08/10 06:27:23;;;;;;;5.03;3.50;;;21.10;99.90;;;;;;5057499;28;20174;-82
2022/08/10 06:29:51;;;;;;;8.88;3.60;;;21.50;99.90;;;;;;5059576;28;20164;-81
2022/08/10 06:32:22;;;;;;;9.65;3.05;;;21.50;99.90;;;;;;5059265;28;20173;-82
2022/08/10 06:34:52;;;;;;;4.72;3.35;;;21.90;99.90;;;;;;5060627;28;20216;-81
2022/08/10 06:37:20;;;;;;;14.07;3.10;;;21.90;99.90;;;;;;5059164;28;20759;-82
2022/08/10 06:39:47;;;;;;;7.40;3.10;;;21.70;99.90;;;;;;5060807;28;20921;-82
2022/08/10 06:42:14;;;;;;;6.75;2.60;;;22.10;99.90;;;;;;5060221;28;20177;-81
2022/08/10 06:45:06;;;;;;;6.53;2.80;;;22.50;99.90;;;;;;5061970;28;20196;-81
2022/08/10 06:47:40;;;;;;;4.88;2.70;;;22.90;99.90;;;;;;5062177;28;20197;-82
2022/08/10 06:50:20;;;;;;;6.65;2.47;;;23.10;99.90;;;;;;5062154;28;20642;-81
2022/08/10 06:52:50;;;;;;;3.80;2.40;;;23.20;99.90;;;;;;5058257;28;20513;-81
2022/08/10 06:55:17;;;;;;;5.50;2.30;;;23.20;99.90;;;;;;5056653;28;20189;-80
2022/08/10 06:57:44;;;;;;;8.55;2.63;;;23.10;99.90;;;;;;5057852;28;20264;-79
2022/08/10 07:00:13;;;;;;;6.97;2.42;;;23.30;99.90;;;;;;5058828;28;20642;-79
2022/08/10 07:02:56;;;;;;;4.13;2.30;;;23.60;99.90;;;;;;5056521;28;20177;-79
2022/08/10 07:05:25;;;;;;;4.65;2.20;;;23.80;99.90;;;;;;5057277;28;20185;-79
2022/08/10 07:07:54;;;;;;;6.57;2.15;;;24.10;99.90;;;;;;5057854;28;20223;-79
2022/08/10 07:10:22;;;;;;;5.25;2.10;;;24.20;99.90;;;;;;5057086;28;20239;-79
2022/08/10 07:12:51;;;;;;;2.58;2.22;;;24.60;99.90;;;;;;5056244;28;20173;-80
2022/08/10 07:15:18;;;;;;;3.28;2.40;;;24.70;99.90;;;;;;5056508;28;20197;-81
2022/08/10 07:17:46;;;;;;;6.50;2.20;;;25.00;99.90;;;;;;5055481;28;20204;-82
2022/08/10 07:20:17;;;;;;;6.57;3.65;;;25.00;99.90;;;;;;5057249;28;20178;-83
2022/08/10 07:22:49;;;;;;;7.93;4.70;;;25.10;99.50;;;;;;5058431;28;20161;-82
2022/08/10 07:25:21;;;;;;;4.15;2.38;;;25.20;99.30;;;;;;5056948;28;20201;-81
2022/08/10 07:27:48;;;;;;;4.75;2.75;;;25.50;98.00;;;;;;5055760;28;20503;-82
2022/08/10 07:30:14;;;;;;;4.68;2.53;;;25.90;97.20;;;;;;5055889;28;20295;-81
2022/08/10 07:32:44;;;;;;;3.20;2.13;;;26.10;96.60;;;;;;5056884;28;20213;-81
2022/08/10 07:35:13;;;;;;;6.57;2.83;;;26.30;96.60;;;;;;5055114;28;20201;-82
2022/08/10 07:37:41;;;;;;;4.70;2.33;;;26.20;95.80;;;;;;5054877;28;20197;-81
2022/08/10 07:40:08;;;;;;;2.78;2.25;;;26.30;95.30;;;;;;5056991;28;20174;-82
2022/08/10 07:42:36;;;;;;;3.88;2.30;;;26.80;95.00;;;;;;5057124;28;20169;-82
2022/08/10 07:45:04;;;;;;;3.30;2.17;;;26.50;94.90;;;;;;5055667;28;20272;-81
2022/08/10 07:47:33;;;;;;;2.22;1.60;;;26.70;94.00;;;;;;5056194;28;20177;-81
2022/08/10 07:50:04;;;;;;;6.97;2.00;;;26.90;94.30;;;;;;5056271;28;20225;-82
2022/08/10 07:52:32;;;;;;;3.90;2.03;;;26.90;93.80;;;;;;5054372;28;20548;-81
2022/08/10 07:55:00;;;;;;;2.75;2.10;;;27.00;93.30;;;;;;5052974;28;20224;-82
2022/08/10 07:57:29;;;;;;;3.25;1.70;;;27.50;92.70;;;;;;5052549;28;20232;-81
2022/08/10 08:00:00;;;;;;;2.03;1.80;;;27.70;92.60;;;;;;5052849;28;20176;-82
2022/08/10 08:03:00;;;;;;;4.13;1.90;;;27.20;92.40;;;;;;5052762;28;20161;-82
2022/08/10 08:05:27;;;;;;;8.30;2.17;;;26.70;92.60;;;;;;5051790;28;20674;-81
2022/08/10 08:07:56;;;;;;;2.47;1.70;;;27.10;92.80;;;;;;5051329;28;20668;-82
2022/08/10 08:10:24;;;;;;;3.65;1.90;;;27.70;92.60;;;;;;5051122;28;20549;-81
2022/08/10 08:12:51;;;;;;;4.05;1.88;;;27.60;91.30;;;;;;5051627;28;20581;-82
2022/08/10 08:15:22;;;;;;;3.28;1.98;;;27.70;91.30;;;;;;5051788;28;20633;-83
2022/08/10 08:17:50;;;;;;;10.32;2.15;;;27.80;90.40;;;;;;5051531;28;20197;-81
2022/08/10 08:20:18;;;;;;;4.55;1.67;;;27.90;90.40;;;;;;5051568;28;20242;-82
2022/08/10 08:22:45;;;;;;;6.47;2.03;;;27.90;90.80;;;;;;5052357;28;20170;-81
2022/08/10 08:25:12;;;;;;;3.38;2.05;;;27.90;90.10;;;;;;5050826;28;20999;-82
2022/08/10 08:27:41;;;;;;;4.70;1.88;;;28.10;91.10;;;;;;5051526;28;20169;-81
2022/08/10 08:30:07;;;;;;;4.80;1.90;;;28.70;90.70;;;;;;5052876;28;20518;-82
2022/08/10 08:32:39;;;;;;;2.90;2.42;;;28.90;88.30;;;;;;5051818;28;20174;-82
2022/08/10 08:35:08;;;;;;;1.80;1.60;;;28.70;85.90;;;;;;5050955;28;20334;-82
2022/08/10 08:37:36;;;;;;;9.27;2.13;;;28.20;85.80;;;;;;5051136;28;20259;-81
2022/08/10 08:40:10;;;;;;;3.92;2.10;;;28.50;86.80;;;;;;5051184;28;20331;-82
2022/08/10 08:42:51;;;;;;;4.47;2.05;;;29.10;87.60;;;;;;5051995;28;20157;-82
2022/08/10 08:45:33;;;;;;;5.25;2.33;;;29.10;85.60;;;;;;5050546;28;20330;-81
2022/08/10 08:48:05;;;;;;;6.47;1.90;;;29.70;86.60;;;;;;5051112;28;20161;-81
2022/08/10 08:50:49;;;;;;;4.43;1.90;;;30.20;85.80;;;;;;5051106;28;20628;-82
2022/08/10 08:53:56;;;;;;;11.25;2.40;;;29.90;83.30;;;;;;5053435;28;20168;-81
2022/08/10 08:56:44;;;;;;;6.15;1.90;;;29.60;82.90;;;;;;5048497;28;20713;-82
2022/08/10 08:59:22;;;;;;;11.05;2.05;;;29.80;84.40;;;;;;5052099;28;20272;-82
2022/08/10 09:01:54;;;;;;;5.18;1.95;;;29.60;81.60;;;;;;5055097;28;20239;-81
2022/08/10 09:04:22;;;;;;;2.08;1.90;;;29.90;83.10;;;;;;5054960;28;20173;-81
2022/08/10 09:06:59;;;;;;;5.80;1.80;;;30.50;82.00;;;;;;5055342;28;20260;-82
2022/08/10 09:09:51;;;;;;;9.77;2.08;;;30.50;80.90;;;;;;5053849;28;20188;-82
2022/08/10 09:12:44;;;;;;;2.55;1.90;;;30.00;80.80;;;;;;5054313;28;20176;-83
2022/08/10 09:15:35;;;;;;;5.93;1.85;;;30.50;79.20;;;;;;5052466;28;20193;-82
2022/08/10 09:18:28;;;;;;;2.40;1.80;;;30.60;76.70;;;;;;5053469;28;20193;-81
2022/08/10 09:21:16;;;;;;;3.40;1.90;;;29.80;75.70;;;;;;5054064;28;20170;-83
2022/08/10 09:24:12;;;;;;;5.82;2.00;;;30.60;76.80;;;;;;5054301;28;20157;-82
2022/08/10 09:26:45;;;;;;;1.75;1.63;;;30.70;77.90;;;;;;5054037;28;20158;-82
2022/08/10 09:29:18;;;;;;;5.82;1.90;;;30.90;75.70;;;;;;5053543;28;20558;-83
2022/08/10 09:31:49;;;;;;;3.03;1.95;;;30.00;74.80;;;;;;5054026;28;20180;-82
2022/08/10 09:34:25;;;;;;;1.58;1.48;;;30.10;76.10;;;;;;5052969;28;20161;-83
2022/08/10 09:37:04;;;;;;;4.43;1.65;;;29.80;75.60;;;;;;5057600;28;20195;-83
2022/08/10 09:39:51;;;;;;;7.93;2.08;;;30.30;74.30;;;;;;5058754;28;20181;-82
2022/08/10 09:42:35;;;;;;;7.78;1.75;;;30.20;74.00;;;;;;5058416;28;20638;-81
2022/08/10 09:45:29;;;;;;;5.20;1.52;;;30.60;75.50;;;;;;5057279;28;20205;-82
2022/08/10 09:48:24;;;;;;;6.10;1.60;;;30.30;73.40;;;;;;5057501;28;20161;-81
2022/08/10 09:51:15;;;;;;;1.63;1.52;;;30.90;75.20;;;;;;5057754;28;20173;-82
2022/08/10 09:54:18;;;;;;;6.80;1.75;;;30.80;74.20;;;;;;5058890;28;20541;-82
2022/08/10 09:56:56;;;;;;;6.25;1.67;;;31.30;72.60;;;;;;5056475;28;20177;-83
2022/08/10 09:59:39;;;;;;;3.58;1.65;;;30.50;74.90;;;;;;5056079;28;20636;-82
2022/08/10 10:02:26;;;;;;;4.78;1.60;;;31.30;74.20;;;;;;5056932;28;20168;-82
2022/08/10 10:04:54;;;;;;;4.28;1.70;;;30.50;72.40;;;;;;5056708;28;20193;-81
2022/08/10 10:07:26;;;;;;;4.80;1.88;;;31.10;72.80;;;;;;5056463;28;20303;-82
2022/08/10 10:10:07;;;;;;;6.82;1.70;;;31.70;70.90;;;;;;5056820;28;20319;-81
2022/08/10 10:13:02;;;;;;;2.10;1.50;;;31.70;71.90;;;;;;5055851;28;20235;-81
2022/08/10 10:15:42;;;;;;;3.72;1.80;;;32.70;70.10;;;;;;5058615;28;20204;-82
2022/08/10 10:18:26;;;;;;;4.60;1.50;;;31.90;70.20;;;;;;5058934;28;20228;-81
2022/08/10 10:21:15;;;;;;;9.73;1.92;;;31.80;69.70;;;;;;5057931;28;20207;-81
2022/08/10 10:23:50;;;;;;;2.58;1.48;;;31.10;74.50;;;;;;5055869;28;20158;-83
2022/08/10 10:26:51;;;;;;;2.78;1.48;;;31.40;70.20;;;;;;5055104;28;20188;-83
2022/08/10 10:29:41;;;;;;;5.43;1.70;;;31.20;69.90;;;;;;5055747;28;20550;-82
2022/08/10 10:32:21;;;;;;;2.53;1.50;;;31.10;71.50;;;;;;5056119;28;20223;-81
2022/08/10 10:34:55;;;;;;;1.77;1.40;;;30.90;69.70;;;;;;5055821;28;20408;-81
2022/08/10 10:37:23;;;;;;;6.88;1.35;;;30.90;70.10;;;;;;5056589;28;20193;-80
2022/08/10 10:39:53;;;;;;;6.65;1.63;;;30.80;70.50;;;;;;5056454;28;20692;-81
2022/08/10 10:42:29;;;;;;;2.13;1.40;;;30.80;72.60;;;;;;5056191;28;20188;-80
2022/08/10 10:45:17;;;;;;;6.38;1.48;;;31.10;70.30;;;;;;5054535;28;20185;-81
2022/08/10 10:48:04;;;;;;;2.30;1.45;;;30.60;69.80;;;;;;5053799;28;20196;-81
2022/08/10 10:50:59;;;;;;;3.05;1.60;;;30.80;71.80;;;;;;5055055;28;20223;-81
2022/08/10 10:53:37;;;;;;;1.40;1.40;;;30.90;68.90;;;;;;5055539;28;20222;-80
2022/08/10 10:56:10;;;;;;;3.90;1.60;;;31.00;68.80;;;;;;5056191;28;20287;-80
2022/08/10 10:59:14;;;;;;;3.70;1.52;;;32.20;69.80;;;;;;5055592;28;20229;-81
2022/08/10 11:02:14;;;;;;;6.22;1.83;;;32.20;69.30;;;;;;5055347;28;20180;-81
2022/08/10 11:04:48;;;;;;;4.45;1.40;;;32.10;65.30;;;;;;5056107;28;20189;-80
2022/08/10 11:07:20;;;;;;;5.05;1.40;;;34.20;66.10;;;;;;5057255;28;20233;-81
2022/08/10 11:10:29;;;;;;;2.60;1.40;;;34.70;66.40;;;;;;5056084;28;20232;-81
2022/08/10 11:13:16;;;;;;;2.33;1.17;;;34.10;65.30;;;;;;5039644;28;20181;-82
2022/08/10 11:16:11;;;;;;;4.20;1.38;;;32.40;65.80;;;;;;5054384;28;20716;-83
2022/08/10 11:18:56;;;;;;;8.73;1.58;;;32.20;66.60;;;;;;5054792;28;20279;-82
2022/08/10 11:21:59;;;;;;;3.10;1.40;;;31.20;66.10;;;;;;5055058;28;20164;-81
2022/08/10 11:24:43;;;;;;;1.50;1.40;;;31.50;66.10;;;;;;5055158;28;20157;-84
2022/08/10 11:27:37;;;;;;;1.45;1.35;;;31.70;65.70;;;;;;5055180;28;20158;-83
2022/08/10 11:30:06;;;;;;;3.85;2.17;;;32.00;66.80;;;;;;5053412;28;20173;-82
2022/08/10 11:32:35;;;;;;;4.43;1.55;;;32.40;66.30;;;;;;5053955;28;20178;-84
2022/08/10 11:35:07;;;;;;;2.08;1.45;;;31.50;65.70;;;;;;5052086;28;20296;-77
2022/08/10 11:37:40;;;;;;;8.40;1.70;;;31.10;66.70;;;;;;5053233;28;20603;-78
2022/08/10 11:40:14;;;;;;;3.13;1.50;;;31.20;66.30;;;;;;5051537;28;20173;-77
2022/08/10 11:43:06;;;;;;;3.78;1.60;;;31.60;66.10;;;;;;5051487;28;20205;-77
2022/08/10 11:45:35;;;;;;;4.47;1.50;;;32.80;65.30;;;;;;5033816;28;20284;-77
2022/08/10 11:48:05;;;;;;;5.43;1.85;;;32.10;65.10;;;;;;5051574;28;20177;-77
2022/08/10 11:50:50;;;;;;;2.92;1.40;;;33.10;63.50;;;;;;5051391;28;20184;-77
2022/08/10 11:53:30;;;;;;;2.13;1.50;;;34.10;61.40;;;;;;5051132;28;20177;-77
2022/08/10 11:55:58;;;;;;;4.38;1.55;;;33.70;63.80;;;;;;5052321;28;20555;-78
2022/08/10 12:01:16;;;;;;;2.20;1.50;;;32.20;64.30;;;;;;5055617;28;20212;-78
2022/08/10 12:03:43;;;;;;;13.68;1.65;;;32.00;62.60;;;;;;5058606;28;20173;-80
2022/08/10 12:06:14;;;;;;;3.20;1.13;;;31.70;63.50;;;;;;5061294;28;20196;-81
2022/08/10 12:08:46;;;;;;;2.60;1.35;;;31.40;62.60;;;;;;5060362;28;20684;-80
2022/08/10 12:11:15;;;;;;;7.90;1.50;;;31.50;61.20;;;;;;5062432;28;20183;-81
2022/08/10 12:13:48;;;;;;;3.90;1.30;;;31.20;64.80;;;;;;5059977;28;20165;-81
2022/08/10 12:16:22;;;;;;;4.40;1.38;;;30.90;63.10;;;;;;5057981;28;20208;-81
2022/08/10 12:19:03;;;;;;;2.47;1.48;;;30.50;64.10;;;;;;5054407;28;20265;-82
2022/08/10 12:21:35;;;;;;;3.08;1.40;;;31.20;63.00;;;;;;5054869;28;20316;-81
2022/08/10 12:24:38;;;;;;;4.97;1.40;;;30.70;64.90;;;;;;5055126;28;20173;-82
2022/08/10 12:27:13;;;;;;;7.28;1.35;;;30.60;64.30;;;;;;5055065;28;20171;-82
2022/08/10 12:29:48;;;;;;;2.60;1.38;;;30.20;64.40;;;;;;5053875;28;20254;-82
2022/08/10 12:32:21;;;;;;;2.47;1.58;;;30.10;67.00;;;;;;5053302;28;20175;-81
2022/08/10 12:34:54;;;;;;;2.70;1.50;;;30.60;63.20;;;;;;5055776;28;20764;-81
2022/08/10 12:38:04;;;;;;;1.65;1.40;;;30.40;65.70;;;;;;5057065;28;20565;-82
2022/08/10 12:40:41;;;;;;;14.52;1.80;;;30.50;66.50;;;;;;5054459;28;20807;-82
2022/08/10 12:43:29;;;;;;;3.38;1.40;;;30.20;66.60;;;;;;5052751;28;20222;-81
2022/08/10 12:46:14;;;;;;;9.52;1.75;;;29.80;65.40;;;;;;5052643;28;20189;-82
2022/08/10 12:49:04;;;;;;;2.05;1.42;;;29.50;63.60;;;;;;5053511;28;20184;-82
2022/08/10 12:51:32;;;;;;;5.47;1.50;;;29.50;65.30;;;;;;5054054;28;20215;-84
2022/08/10 12:54:15;;;;;;;2.90;1.40;;;29.80;65.40;;;;;;5052405;28;20173;-83
2022/08/10 12:56:49;;;;;;;7.70;1.50;;;29.60;64.90;;;;;;5052528;28;20162;-83
2022/08/10 12:59:16;;;;;;;3.45;1.67;;;30.00;64.00;;;;;;5052543;28;20176;-82
2022/08/10 13:01:45;;;;;;;7.95;1.90;;;29.90;64.60;;;;;;5052511;28;20165;-81
2022/08/10 13:04:16;;;;;;;3.58;1.40;;;29.60;65.00;;;;;;5055274;28;20169;-81
2022/08/10 13:06:45;;;;;;;8.73;1.70;;;29.70;65.50;;;;;;5057565;28;20174;-78
2022/08/10 13:09:20;;;;;;;9.88;1.67;;;29.90;66.30;;;;;;5063021;28;20662;-80
2022/08/10 13:11:49;;;;;;;1.63;1.50;;;29.80;65.80;;;;;;5055249;28;20663;-83
2022/08/10 13:14:20;;;;;;;4.18;1.70;;;30.00;64.90;;;;;;5051693;28;20169;-82
2022/08/10 13:16:49;;;;;;;7.30;1.70;;;29.50;65.80;;;;;;5037942;28;20785;-82
2022/08/10 13:19:20;;;;;;;10.07;1.73;;;29.60;66.30;;;;;;5053857;28;20207;-82
2022/08/10 13:21:46;;;;;;;7.22;1.80;;;29.50;65.50;;;;;;5053677;28;20176;-81